sensor_id;sensor_type;location;lat;lon;timestamp;P1;durP1;ratioP1;P2;durP2;ratioP2
44145;SDS011;29809;52.432;4.780;2022-12-04T00:00:21;16.65;;;14.95;;
44145;SDS011;29809;52.432;4.780;2022-12-04T00:02:46;15.77;;;14.17;;
44145;SDS011;29809;52.432;4.780;2022-12-04T00:05:11;16.27;;;14.57;;
44145;SDS011;29809;52.432;4.780;2022-12-04T00:07:36;16.73;;;14.88;;
44145;SDS011;29809;52.432;4.780;2022-12-04T00:10:02;16.30;;;13.95;;
44145;SDS011;29809;52.432;4.780;2022-12-04T00:12:27;16.33;;;14.68;;
44145;SDS011;29809;52.432;4.780;2022-12-04T00:14:53;16.27;;;14.68;;
44145;SDS011;29809;52.432;4.780;2022-12-04T00:17:19;15.10;;;13.63;;
44145;SDS011;29809;52.432;4.780;2022-12-04T00:19:44;15.97;;;14.37;;
44145;SDS011;29809;52.432;4.780;2022-12-04T00:22:09;16.42;;;14.73;;
44145;SDS011;29809;52.432;4.780;2022-12-04T00:24:34;16.63;;;14.93;;
44145;SDS011;29809;52.432;4.780;2022-12-04T00:26:59;16.02;;;14.43;;
44145;SDS011;29809;52.432;4.780;2022-12-04T00:29:25;16.07;;;14.47;;
44145;SDS011;29809;52.432;4.780;2022-12-04T00:31:50;15.95;;;14.30;;
44145;SDS011;29809;52.432;4.780;2022-12-04T00:34:15;16.45;;;14.77;;
44145;SDS011;29809;52.432;4.780;2022-12-04T00:36:40;16.77;;;14.88;;
44145;SDS011;29809;52.432;4.780;2022-12-04T00:39:06;16.60;;;14.87;;
44145;SDS011;29809;52.432;4.780;2022-12-04T00:41:31;16.75;;;14.77;;
44145;SDS011;29809;52.432;4.780;2022-12-04T00:43:57;16.58;;;14.95;;
44145;SDS011;29809;52.432;4.780;2022-12-04T00:46:22;17.17;;;15.48;;
44145;SDS011;29809;52.432;4.780;2022-12-04T00:48:48;16.30;;;14.60;;
44145;SDS011;29809;52.432;4.780;2022-12-04T00:51:14;15.53;;;13.93;;
44145;SDS011;29809;52.432;4.780;2022-12-04T00:53:40;16.83;;;14.75;;
44145;SDS011;29809;52.432;4.780;2022-12-04T00:56:07;17.05;;;15.32;;
44145;SDS011;29809;52.432;4.780;2022-12-04T00:58:32;16.43;;;14.70;;
44145;SDS011;29809;52.432;4.780;2022-12-04T01:01:01;16.73;;;15.03;;
44145;SDS011;29809;52.432;4.780;2022-12-04T01:03:28;16.33;;;14.63;;
44145;SDS011;29809;52.432;4.780;2022-12-04T01:05:53;17.50;;;15.70;;
44145;SDS011;29809;52.432;4.780;2022-12-04T01:08:18;17.40;;;15.63;;
44145;SDS011;29809;52.432;4.780;2022-12-04T01:10:43;16.17;;;14.38;;
44145;SDS011;29809;52.432;4.780;2022-12-04T01:13:09;17.47;;;15.30;;
44145;SDS011;29809;52.432;4.780;2022-12-04T01:15:38;16.93;;;15.23;;
44145;SDS011;29809;52.432;4.780;2022-12-04T01:18:03;16.60;;;14.80;;
44145;SDS011;29809;52.432;4.780;2022-12-04T01:20:28;17.37;;;15.17;;
44145;SDS011;29809;52.432;4.780;2022-12-04T01:22:54;17.17;;;15.27;;
44145;SDS011;29809;52.432;4.780;2022-12-04T01:25:19;17.03;;;15.33;;
44145;SDS011;29809;52.432;4.780;2022-12-04T01:27:44;17.17;;;15.53;;
44145;SDS011;29809;52.432;4.780;2022-12-04T01:30:09;16.23;;;14.63;;
44145;SDS011;29809;52.432;4.780;2022-12-04T01:32:35;17.03;;;15.33;;
44145;SDS011;29809;52.432;4.780;2022-12-04T01:35:00;22.67;;;14.50;;
44145;SDS011;29809;52.432;4.780;2022-12-04T01:37:25;16.67;;;14.97;;
44145;SDS011;29809;52.432;4.780;2022-12-04T01:39:51;16.27;;;14.67;;
44145;SDS011;29809;52.432;4.780;2022-12-04T01:42:16;17.23;;;15.53;;
44145;SDS011;29809;52.432;4.780;2022-12-04T01:44:42;17.90;;;16.10;;
44145;SDS011;29809;52.432;4.780;2022-12-04T01:47:08;16.37;;;14.13;;
44145;SDS011;29809;52.432;4.780;2022-12-04T01:49:38;16.80;;;15.07;;
44145;SDS011;29809;52.432;4.780;2022-12-04T01:52:19;16.50;;;14.80;;
44145;SDS011;29809;52.432;4.780;2022-12-04T01:54:46;16.83;;;14.93;;
44145;SDS011;29809;52.432;4.780;2022-12-04T01:57:17;17.37;;;15.67;;
44145;SDS011;29809;52.432;4.780;2022-12-04T01:59:44;16.93;;;15.13;;
44145;SDS011;29809;52.432;4.780;2022-12-04T02:02:11;16.87;;;15.10;;
44145;SDS011;29809;52.432;4.780;2022-12-04T02:04:37;16.47;;;14.73;;
44145;SDS011;29809;52.432;4.780;2022-12-04T02:07:03;17.43;;;15.63;;
44145;SDS011;29809;52.432;4.780;2022-12-04T02:09:29;16.83;;;15.13;;
44145;SDS011;29809;52.432;4.780;2022-12-04T02:16:56;18.67;;;16.50;;
44145;SDS011;29809;52.432;4.780;2022-12-04T02:19:32;17.13;;;15.43;;
44145;SDS011;29809;52.432;4.780;2022-12-04T02:22:07;16.63;;;14.93;;
44145;SDS011;29809;52.432;4.780;2022-12-04T02:24:55;18.07;;;15.80;;
44145;SDS011;29809;52.432;4.780;2022-12-04T02:29:56;16.53;;;14.77;;
44145;SDS011;29809;52.432;4.780;2022-12-04T02:32:29;17.30;;;15.50;;
44145;SDS011;29809;52.432;4.780;2022-12-04T02:35:01;17.50;;;15.67;;
44145;SDS011;29809;52.432;4.780;2022-12-04T02:37:32;17.17;;;15.47;;
44145;SDS011;29809;52.432;4.780;2022-12-04T02:40:00;16.87;;;15.13;;
44145;SDS011;29809;52.432;4.780;2022-12-04T02:42:32;16.60;;;14.93;;
44145;SDS011;29809;52.432;4.780;2022-12-04T02:45:02;15.83;;;14.13;;
44145;SDS011;29809;52.432;4.780;2022-12-04T02:47:30;18.30;;;16.40;;
44145;SDS011;29809;52.432;4.780;2022-12-04T02:49:58;17.50;;;15.70;;
44145;SDS011;29809;52.432;4.780;2022-12-04T02:52:27;16.67;;;14.80;;
44145;SDS011;29809;52.432;4.780;2022-12-04T02:54:55;17.03;;;15.23;;
44145;SDS011;29809;52.432;4.780;2022-12-04T02:57:22;17.10;;;15.37;;
44145;SDS011;29809;52.432;4.780;2022-12-04T02:59:48;17.43;;;15.63;;
44145;SDS011;29809;52.432;4.780;2022-12-04T03:02:27;17.70;;;15.80;;
44145;SDS011;29809;52.432;4.780;2022-12-04T03:04:53;17.70;;;15.80;;
44145;SDS011;29809;52.432;4.780;2022-12-04T03:07:23;17.07;;;15.37;;
44145;SDS011;29809;52.432;4.780;2022-12-04T03:09:51;16.50;;;14.80;;
44145;SDS011;29809;52.432;4.780;2022-12-04T03:14:47;16.13;;;14.50;;
44145;SDS011;29809;52.432;4.780;2022-12-04T03:17:16;17.33;;;15.53;;
44145;SDS011;29809;52.432;4.780;2022-12-04T03:19:45;16.90;;;15.20;;
44145;SDS011;29809;52.432;4.780;2022-12-04T03:22:13;16.83;;;14.47;;
44145;SDS011;29809;52.432;4.780;2022-12-04T03:24:44;16.03;;;14.37;;
44145;SDS011;29809;52.432;4.780;2022-12-04T03:29:54;16.60;;;14.87;;
44145;SDS011;29809;52.432;4.780;2022-12-04T03:32:24;17.20;;;15.40;;
44145;SDS011;29809;52.432;4.780;2022-12-04T03:34:54;16.93;;;14.93;;
44145;SDS011;29809;52.432;4.780;2022-12-04T03:37:33;16.93;;;15.23;;
44145;SDS011;29809;52.432;4.780;2022-12-04T03:40:02;17.07;;;15.07;;
44145;SDS011;29809;52.432;4.780;2022-12-04T03:42:41;16.33;;;14.63;;
44145;SDS011;29809;52.432;4.780;2022-12-04T03:45:34;17.80;;;15.93;;
44145;SDS011;29809;52.432;4.780;2022-12-04T03:47:56;17.77;;;15.50;;
44145;SDS011;29809;52.432;4.780;2022-12-04T03:53:07;17.13;;;15.33;;
44145;SDS011;29809;52.432;4.780;2022-12-04T03:55:39;17.70;;;15.87;;
44145;SDS011;29809;52.432;4.780;2022-12-04T03:58:07;16.37;;;14.73;;
44145;SDS011;29809;52.432;4.780;2022-12-04T04:00:35;17.10;;;15.30;;
44145;SDS011;29809;52.432;4.780;2022-12-04T04:03:08;15.93;;;14.33;;
44145;SDS011;29809;52.432;4.780;2022-12-04T04:05:34;16.63;;;14.97;;
44145;SDS011;29809;52.432;4.780;2022-12-04T04:08:01;15.47;;;13.83;;
44145;SDS011;29809;52.432;4.780;2022-12-04T04:10:46;17.43;;;15.63;;
44145;SDS011;29809;52.432;4.780;2022-12-04T04:13:13;17.60;;;15.90;;
44145;SDS011;29809;52.432;4.780;2022-12-04T04:15:59;17.50;;;15.70;;
44145;SDS011;29809;52.432;4.780;2022-12-04T04:18:45;16.17;;;14.47;;
44145;SDS011;29809;52.432;4.780;2022-12-04T04:21:31;17.83;;;16.03;;
44145;SDS011;29809;52.432;4.780;2022-12-04T04:24:26;16.67;;;14.87;;
44145;SDS011;29809;52.432;4.780;2022-12-04T04:26:51;18.23;;;16.33;;
44145;SDS011;29809;52.432;4.780;2022-12-04T04:29:18;17.03;;;15.33;;
44145;SDS011;29809;52.432;4.780;2022-12-04T04:34:18;16.67;;;15.07;;
44145;SDS011;29809;52.432;4.780;2022-12-04T04:41:43;17.77;;;15.97;;
44145;SDS011;29809;52.432;4.780;2022-12-04T04:44:14;16.53;;;14.90;;
44145;SDS011;29809;52.432;4.780;2022-12-04T04:46:44;17.73;;;15.93;;
44145;SDS011;29809;52.432;4.780;2022-12-04T04:49:13;16.83;;;15.13;;
44145;SDS011;29809;52.432;4.780;2022-12-04T04:51:39;17.80;;;15.90;;
44145;SDS011;29809;52.432;4.780;2022-12-04T04:54:05;17.60;;;15.80;;
44145;SDS011;29809;52.432;4.780;2022-12-04T04:56:31;17.80;;;15.90;;
44145;SDS011;29809;52.432;4.780;2022-12-04T04:59:03;17.17;;;15.37;;
44145;SDS011;29809;52.432;4.780;2022-12-04T05:01:28;16.47;;;14.87;;
44145;SDS011;29809;52.432;4.780;2022-12-04T05:03:53;17.87;;;16.00;;
44145;SDS011;29809;52.432;4.780;2022-12-04T05:06:18;17.73;;;15.83;;
44145;SDS011;29809;52.432;4.780;2022-12-04T05:08:44;17.50;;;15.70;;
44145;SDS011;29809;52.432;4.780;2022-12-04T05:11:10;17.50;;;15.70;;
44145;SDS011;29809;52.432;4.780;2022-12-04T05:13:36;17.57;;;15.77;;
44145;SDS011;29809;52.432;4.780;2022-12-04T05:16:03;17.73;;;15.83;;
44145;SDS011;29809;52.432;4.780;2022-12-04T05:18:29;17.87;;;16.07;;
44145;SDS011;29809;52.432;4.780;2022-12-04T05:20:54;18.37;;;16.47;;
44145;SDS011;29809;52.432;4.780;2022-12-04T05:23:20;17.60;;;15.67;;
44145;SDS011;29809;52.432;4.780;2022-12-04T05:25:45;17.97;;;16.10;;
44145;SDS011;29809;52.432;4.780;2022-12-04T05:28:10;17.77;;;15.97;;
44145;SDS011;29809;52.432;4.780;2022-12-04T05:30:36;18.07;;;16.27;;
44145;SDS011;29809;52.432;4.780;2022-12-04T05:33:01;18.33;;;16.53;;
44145;SDS011;29809;52.432;4.780;2022-12-04T05:35:26;19.10;;;17.10;;
44145;SDS011;29809;52.432;4.780;2022-12-04T05:37:52;18.23;;;15.80;;
44145;SDS011;29809;52.432;4.780;2022-12-04T05:40:17;19.07;;;17.07;;
44145;SDS011;29809;52.432;4.780;2022-12-04T05:42:42;17.83;;;16.13;;
44145;SDS011;29809;52.432;4.780;2022-12-04T05:45:07;18.40;;;16.20;;
44145;SDS011;29809;52.432;4.780;2022-12-04T05:47:39;18.87;;;16.90;;
44145;SDS011;29809;52.432;4.780;2022-12-04T05:50:04;17.80;;;16.10;;
44145;SDS011;29809;52.432;4.780;2022-12-04T05:52:30;20.17;;;18.07;;
44145;SDS011;29809;52.432;4.780;2022-12-04T05:54:55;18.90;;;16.87;;
44145;SDS011;29809;52.432;4.780;2022-12-04T05:57:20;18.97;;;17.07;;
44145;SDS011;29809;52.432;4.780;2022-12-04T05:59:45;19.27;;;17.20;;
44145;SDS011;29809;52.432;4.780;2022-12-04T06:02:11;18.47;;;16.50;;
44145;SDS011;29809;52.432;4.780;2022-12-04T06:04:36;18.97;;;17.00;;
44145;SDS011;29809;52.432;4.780;2022-12-04T06:07:02;19.23;;;17.13;;
44145;SDS011;29809;52.432;4.780;2022-12-04T06:09:27;19.33;;;17.43;;
44145;SDS011;29809;52.432;4.780;2022-12-04T06:11:55;19.67;;;17.27;;
44145;SDS011;29809;52.432;4.780;2022-12-04T06:14:20;19.83;;;17.73;;
44145;SDS011;29809;52.432;4.780;2022-12-04T06:16:46;19.80;;;17.80;;
44145;SDS011;29809;52.432;4.780;2022-12-04T06:19:15;19.00;;;17.10;;
44145;SDS011;29809;52.432;4.780;2022-12-04T06:21:41;18.73;;;16.73;;
44145;SDS011;29809;52.432;4.780;2022-12-04T06:24:07;19.27;;;17.27;;
44145;SDS011;29809;52.432;4.780;2022-12-04T06:26:32;19.77;;;17.67;;
44145;SDS011;29809;52.432;4.780;2022-12-04T06:28:58;18.23;;;16.33;;
44145;SDS011;29809;52.432;4.780;2022-12-04T06:31:24;18.93;;;17.03;;
44145;SDS011;29809;52.432;4.780;2022-12-04T06:33:51;19.03;;;16.87;;
44145;SDS011;29809;52.432;4.780;2022-12-04T06:36:17;20.30;;;18.13;;
44145;SDS011;29809;52.432;4.780;2022-12-04T06:38:43;18.70;;;16.70;;
44145;SDS011;29809;52.432;4.780;2022-12-04T06:41:12;19.83;;;17.73;;
44145;SDS011;29809;52.432;4.780;2022-12-04T06:43:37;21.83;;;17.70;;
44145;SDS011;29809;52.432;4.780;2022-12-04T06:46:04;18.97;;;16.67;;
44145;SDS011;29809;52.432;4.780;2022-12-04T06:48:29;20.03;;;17.83;;
44145;SDS011;29809;52.432;4.780;2022-12-04T06:51:00;19.27;;;17.17;;
44145;SDS011;29809;52.432;4.780;2022-12-04T06:53:27;19.63;;;17.53;;
44145;SDS011;29809;52.432;4.780;2022-12-04T06:55:54;19.00;;;16.27;;
44145;SDS011;29809;52.432;4.780;2022-12-04T06:58:19;18.40;;;16.50;;
44145;SDS011;29809;52.432;4.780;2022-12-04T07:00:45;19.17;;;17.17;;
44145;SDS011;29809;52.432;4.780;2022-12-04T07:03:10;19.13;;;16.40;;
44145;SDS011;29809;52.432;4.780;2022-12-04T07:05:35;18.77;;;16.83;;
44145;SDS011;29809;52.432;4.780;2022-12-04T07:08:00;19.40;;;17.30;;
44145;SDS011;29809;52.432;4.780;2022-12-04T07:10:25;20.77;;;17.20;;
44145;SDS011;29809;52.432;4.780;2022-12-04T07:12:51;19.63;;;17.53;;
44145;SDS011;29809;52.432;4.780;2022-12-04T07:15:16;19.13;;;17.13;;
44145;SDS011;29809;52.432;4.780;2022-12-04T07:17:41;17.60;;;15.80;;
44145;SDS011;29809;52.432;4.780;2022-12-04T07:20:07;19.70;;;17.60;;
44145;SDS011;29809;52.432;4.780;2022-12-04T07:22:32;20.13;;;18.13;;
44145;SDS011;29809;52.432;4.780;2022-12-04T07:24:57;19.67;;;17.67;;
44145;SDS011;29809;52.432;4.780;2022-12-04T07:27:22;19.07;;;17.13;;
44145;SDS011;29809;52.432;4.780;2022-12-04T07:29:50;20.10;;;17.60;;
44145;SDS011;29809;52.432;4.780;2022-12-04T07:32:15;19.53;;;17.63;;
44145;SDS011;29809;52.432;4.780;2022-12-04T07:34:40;20.63;;;18.50;;
44145;SDS011;29809;52.432;4.780;2022-12-04T07:37:05;19.10;;;17.17;;
44145;SDS011;29809;52.432;4.780;2022-12-04T07:39:31;19.70;;;17.70;;
44145;SDS011;29809;52.432;4.780;2022-12-04T07:41:56;18.13;;;16.27;;
44145;SDS011;29809;52.432;4.780;2022-12-04T07:44:21;20.67;;;18.17;;
44145;SDS011;29809;52.432;4.780;2022-12-04T07:46:46;131.60;;;49.10;;
44145;SDS011;29809;52.432;4.780;2022-12-04T07:49:11;157.50;;;55.87;;
44145;SDS011;29809;52.432;4.780;2022-12-04T07:51:37;144.83;;;52.17;;
44145;SDS011;29809;52.432;4.780;2022-12-04T07:54:02;63.93;;;31.07;;
44145;SDS011;29809;52.432;4.780;2022-12-04T07:56:28;89.03;;;36.57;;
44145;SDS011;29809;52.432;4.780;2022-12-04T07:58:53;82.60;;;35.30;;
44145;SDS011;29809;52.432;4.780;2022-12-04T08:01:22;65.83;;;34.10;;
44145;SDS011;29809;52.432;4.780;2022-12-04T08:03:48;65.23;;;32.83;;
44145;SDS011;29809;52.432;4.780;2022-12-04T08:06:14;66.40;;;32.97;;
44145;SDS011;29809;52.432;4.780;2022-12-04T08:08:40;60.43;;;29.33;;
44145;SDS011;29809;52.432;4.780;2022-12-04T08:11:06;54.87;;;28.10;;
44145;SDS011;29809;52.432;4.780;2022-12-04T08:13:31;47.20;;;28.43;;
44145;SDS011;29809;52.432;4.780;2022-12-04T08:15:59;52.50;;;27.53;;
44145;SDS011;29809;52.432;4.780;2022-12-04T08:18:25;43.27;;;26.80;;
44145;SDS011;29809;52.432;4.780;2022-12-04T08:20:50;49.63;;;26.47;;
44145;SDS011;29809;52.432;4.780;2022-12-04T08:23:15;39.07;;;26.10;;
44145;SDS011;29809;52.432;4.780;2022-12-04T08:25:40;39.67;;;26.27;;
44145;SDS011;29809;52.432;4.780;2022-12-04T08:28:06;39.53;;;24.77;;
44145;SDS011;29809;52.432;4.780;2022-12-04T08:30:32;35.83;;;24.67;;
44145;SDS011;29809;52.432;4.780;2022-12-04T08:32:57;35.03;;;24.20;;
44145;SDS011;29809;52.432;4.780;2022-12-04T08:35:22;31.63;;;23.47;;
44145;SDS011;29809;52.432;4.780;2022-12-04T08:37:47;32.77;;;22.53;;
44145;SDS011;29809;52.432;4.780;2022-12-04T08:40:13;35.47;;;22.10;;
44145;SDS011;29809;52.432;4.780;2022-12-04T08:42:38;31.03;;;22.07;;
44145;SDS011;29809;52.432;4.780;2022-12-04T08:45:03;29.43;;;22.37;;
44145;SDS011;29809;52.432;4.780;2022-12-04T08:47:29;31.50;;;21.97;;
44145;SDS011;29809;52.432;4.780;2022-12-04T08:49:54;33.10;;;22.30;;
44145;SDS011;29809;52.432;4.780;2022-12-04T08:52:19;28.10;;;21.20;;
44145;SDS011;29809;52.432;4.780;2022-12-04T08:54:45;27.87;;;20.70;;
44145;SDS011;29809;52.432;4.780;2022-12-04T08:57:10;24.60;;;21.47;;
44145;SDS011;29809;52.432;4.780;2022-12-04T08:59:35;27.30;;;20.40;;
44145;SDS011;29809;52.432;4.780;2022-12-04T09:02:00;29.27;;;21.53;;
44145;SDS011;29809;52.432;4.780;2022-12-04T09:04:26;29.60;;;20.90;;
44145;SDS011;29809;52.432;4.780;2022-12-04T09:06:51;25.90;;;19.73;;
44145;SDS011;29809;52.432;4.780;2022-12-04T09:09:16;25.43;;;19.97;;
44145;SDS011;29809;52.432;4.780;2022-12-04T09:11:43;22.60;;;19.57;;
44145;SDS011;29809;52.432;4.780;2022-12-04T09:14:08;25.00;;;18.87;;
44145;SDS011;29809;52.432;4.780;2022-12-04T09:16:34;25.30;;;19.90;;
44145;SDS011;29809;52.432;4.780;2022-12-04T09:18:59;24.23;;;18.87;;
44145;SDS011;29809;52.432;4.780;2022-12-04T09:21:24;23.90;;;18.87;;
44145;SDS011;29809;52.432;4.780;2022-12-04T09:23:50;22.50;;;18.87;;
44145;SDS011;29809;52.432;4.780;2022-12-04T09:26:17;25.20;;;19.70;;
44145;SDS011;29809;52.432;4.780;2022-12-04T09:28:43;21.03;;;18.80;;
44145;SDS011;29809;52.432;4.780;2022-12-04T09:31:08;20.97;;;18.20;;
44145;SDS011;29809;52.432;4.780;2022-12-04T09:33:33;21.17;;;18.17;;
44145;SDS011;29809;52.432;4.780;2022-12-04T09:35:59;19.53;;;17.43;;
44145;SDS011;29809;52.432;4.780;2022-12-04T09:38:24;18.80;;;16.50;;
44145;SDS011;29809;52.432;4.780;2022-12-04T09:40:53;22.23;;;18.57;;
44145;SDS011;29809;52.432;4.780;2022-12-04T09:43:30;21.67;;;17.20;;
44145;SDS011;29809;52.432;4.780;2022-12-04T09:45:57;22.60;;;18.40;;
44145;SDS011;29809;52.432;4.780;2022-12-04T09:48:27;19.63;;;17.53;;
44145;SDS011;29809;52.432;4.780;2022-12-04T09:50:53;20.97;;;17.83;;
44145;SDS011;29809;52.432;4.780;2022-12-04T09:53:21;21.70;;;18.63;;
44145;SDS011;29809;52.432;4.780;2022-12-04T09:58:27;20.63;;;17.13;;
44145;SDS011;29809;52.432;4.780;2022-12-04T10:00:52;19.67;;;17.10;;
44145;SDS011;29809;52.432;4.780;2022-12-04T10:03:19;19.13;;;16.97;;
44145;SDS011;29809;52.432;4.780;2022-12-04T10:05:51;18.90;;;16.90;;
44145;SDS011;29809;52.432;4.780;2022-12-04T10:10:50;19.47;;;17.20;;
44145;SDS011;29809;52.432;4.780;2022-12-04T10:18:55;18.67;;;16.53;;
44145;SDS011;29809;52.432;4.780;2022-12-04T10:23:51;20.83;;;17.80;;
44145;SDS011;29809;52.432;4.780;2022-12-04T10:26:21;19.80;;;17.53;;
44145;SDS011;29809;52.432;4.780;2022-12-04T10:28:49;19.53;;;16.17;;
44145;SDS011;29809;52.432;4.780;2022-12-04T10:31:15;19.53;;;15.90;;
44145;SDS011;29809;52.432;4.780;2022-12-04T10:33:44;19.23;;;16.83;;
44145;SDS011;29809;52.432;4.780;2022-12-04T10:36:12;20.47;;;17.00;;
44145;SDS011;29809;52.432;4.780;2022-12-04T10:38:41;18.43;;;15.83;;
44145;SDS011;29809;52.432;4.780;2022-12-04T10:41:14;19.80;;;16.67;;
44145;SDS011;29809;52.432;4.780;2022-12-04T10:43:42;17.23;;;15.43;;
44145;SDS011;29809;52.432;4.780;2022-12-04T10:46:12;18.67;;;15.80;;
44145;SDS011;29809;52.432;4.780;2022-12-04T10:48:38;16.93;;;15.17;;
44145;SDS011;29809;52.432;4.780;2022-12-04T10:51:04;17.47;;;14.90;;
44145;SDS011;29809;52.432;4.780;2022-12-04T10:53:31;17.80;;;15.90;;
44145;SDS011;29809;52.432;4.780;2022-12-04T10:58:55;15.10;;;13.60;;
44145;SDS011;29809;52.432;4.780;2022-12-04T11:01:21;16.40;;;14.73;;
44145;SDS011;29809;52.432;4.780;2022-12-04T11:03:46;16.70;;;14.90;;
44145;SDS011;29809;52.432;4.780;2022-12-04T11:06:22;14.87;;;13.30;;
44145;SDS011;29809;52.432;4.780;2022-12-04T11:08:48;14.77;;;13.17;;
44145;SDS011;29809;52.432;4.780;2022-12-04T11:11:14;15.53;;;13.93;;
44145;SDS011;29809;52.432;4.780;2022-12-04T11:13:40;14.50;;;13.00;;
44145;SDS011;29809;52.432;4.780;2022-12-04T11:16:06;15.17;;;13.57;;
44145;SDS011;29809;52.432;4.780;2022-12-04T11:18:33;14.67;;;12.90;;
44145;SDS011;29809;52.432;4.780;2022-12-04T11:21:00;14.03;;;12.53;;
44145;SDS011;29809;52.432;4.780;2022-12-04T11:23:26;13.20;;;11.90;;
44145;SDS011;29809;52.432;4.780;2022-12-04T11:25:54;14.83;;;13.20;;
44145;SDS011;29809;52.432;4.780;2022-12-04T11:28:21;14.07;;;12.57;;
44145;SDS011;29809;52.432;4.780;2022-12-04T11:30:48;13.97;;;12.43;;
44145;SDS011;29809;52.432;4.780;2022-12-04T11:33:18;14.00;;;12.47;;
44145;SDS011;29809;52.432;4.780;2022-12-04T11:35:49;14.47;;;12.73;;
44145;SDS011;29809;52.432;4.780;2022-12-04T11:38:15;13.63;;;12.20;;
44145;SDS011;29809;52.432;4.780;2022-12-04T11:40:45;13.90;;;12.20;;
44145;SDS011;29809;52.432;4.780;2022-12-04T11:43:12;13.23;;;11.83;;
44145;SDS011;29809;52.432;4.780;2022-12-04T11:45:38;13.97;;;10.90;;
44145;SDS011;29809;52.432;4.780;2022-12-04T11:48:11;12.73;;;11.43;;
44145;SDS011;29809;52.432;4.780;2022-12-04T11:56:08;13.80;;;10.67;;
44145;SDS011;29809;52.432;4.780;2022-12-04T12:04:00;12.87;;;11.17;;
44145;SDS011;29809;52.432;4.780;2022-12-04T12:06:34;12.67;;;11.37;;
44145;SDS011;29809;52.432;4.780;2022-12-04T12:11:35;12.60;;;10.50;;
44145;SDS011;29809;52.432;4.780;2022-12-04T12:16:31;11.90;;;10.70;;
44145;SDS011;29809;52.432;4.780;2022-12-04T12:24:07;11.60;;;10.27;;
44145;SDS011;29809;52.432;4.780;2022-12-04T12:26:44;12.23;;;10.93;;
44145;SDS011;29809;52.432;4.780;2022-12-04T12:36:32;11.80;;;10.40;;
44145;SDS011;29809;52.432;4.780;2022-12-04T12:39:01;12.93;;;10.53;;
44145;SDS011;29809;52.432;4.780;2022-12-04T12:41:28;10.80;;;9.70;;
44145;SDS011;29809;52.432;4.780;2022-12-04T12:44:18;14.67;;;10.60;;
44145;SDS011;29809;52.432;4.780;2022-12-04T12:46:48;10.87;;;9.60;;
44145;SDS011;29809;52.432;4.780;2022-12-04T12:51:54;14.07;;;9.60;;
44145;SDS011;29809;52.432;4.780;2022-12-04T12:54:32;13.30;;;10.10;;
44145;SDS011;29809;52.432;4.780;2022-12-04T12:59:31;11.17;;;9.47;;
44145;SDS011;29809;52.432;4.780;2022-12-04T13:02:42;12.70;;;10.07;;
44145;SDS011;29809;52.432;4.780;2022-12-04T13:04:49;16.17;;;9.80;;
44145;SDS011;29809;52.432;4.780;2022-12-04T13:09:45;12.50;;;10.00;;
44145;SDS011;29809;52.432;4.780;2022-12-04T13:12:12;11.70;;;9.77;;
44145;SDS011;29809;52.432;4.780;2022-12-04T13:14:38;11.30;;;9.23;;
44145;SDS011;29809;52.432;4.780;2022-12-04T13:17:09;11.75;;;10.10;;
44145;SDS011;29809;52.432;4.780;2022-12-04T13:19:39;10.73;;;8.87;;
44145;SDS011;29809;52.432;4.780;2022-12-04T13:22:21;10.67;;;9.57;;
44145;SDS011;29809;52.432;4.780;2022-12-04T13:24:54;10.77;;;9.67;;
44145;SDS011;29809;52.432;4.780;2022-12-04T13:32:27;12.60;;;9.83;;
44145;SDS011;29809;52.432;4.780;2022-12-04T13:37:42;9.20;;;8.27;;
44145;SDS011;29809;52.432;4.780;2022-12-04T13:42:39;11.37;;;8.90;;
44145;SDS011;29809;52.432;4.780;2022-12-04T13:45:06;10.17;;;8.60;;
44145;SDS011;29809;52.432;4.780;2022-12-04T13:47:34;9.57;;;8.57;;
44145;SDS011;29809;52.432;4.780;2022-12-04T13:52:38;10.30;;;8.83;;
44145;SDS011;29809;52.432;4.780;2022-12-04T13:55:21;10.43;;;8.50;;
44145;SDS011;29809;52.432;4.780;2022-12-04T13:57:53;9.57;;;8.60;;
44145;SDS011;29809;52.432;4.780;2022-12-04T14:00:23;9.43;;;8.33;;
44145;SDS011;29809;52.432;4.780;2022-12-04T14:02:50;9.77;;;8.77;;
44145;SDS011;29809;52.432;4.780;2022-12-04T14:05:17;11.23;;;9.03;;
44145;SDS011;29809;52.432;4.780;2022-12-04T14:13:35;11.60;;;9.18;;
44145;SDS011;29809;52.432;4.780;2022-12-04T14:15:35;10.73;;;8.77;;
44145;SDS011;29809;52.432;4.780;2022-12-04T14:18:02;11.93;;;10.27;;
44145;SDS011;29809;52.432;4.780;2022-12-04T14:20:32;11.63;;;10.43;;
44145;SDS011;29809;52.432;4.780;2022-12-04T14:25:50;10.83;;;9.70;;
44145;SDS011;29809;52.432;4.780;2022-12-04T14:28:39;11.63;;;10.37;;
44145;SDS011;29809;52.432;4.780;2022-12-04T14:31:28;11.50;;;10.30;;
44145;SDS011;29809;52.432;4.780;2022-12-04T14:34:00;11.57;;;10.13;;
44145;SDS011;29809;52.432;4.780;2022-12-04T14:36:27;12.27;;;10.97;;
44145;SDS011;29809;52.432;4.780;2022-12-04T14:39:13;12.45;;;10.57;;
44145;SDS011;29809;52.432;4.780;2022-12-04T14:41:42;12.83;;;11.13;;
44145;SDS011;29809;52.432;4.780;2022-12-04T14:44:14;13.60;;;12.13;;
44145;SDS011;29809;52.432;4.780;2022-12-04T14:46:45;13.13;;;11.70;;
44145;SDS011;29809;52.432;4.780;2022-12-04T14:51:45;14.90;;;12.93;;
44145;SDS011;29809;52.432;4.780;2022-12-04T14:54:20;15.13;;;12.50;;
44145;SDS011;29809;52.432;4.780;2022-12-04T14:59:21;13.77;;;12.37;;
44145;SDS011;29809;52.432;4.780;2022-12-04T15:01:47;14.70;;;13.10;;
44145;SDS011;29809;52.432;4.780;2022-12-04T15:06:45;13.17;;;11.77;;
44145;SDS011;29809;52.432;4.780;2022-12-04T15:09:12;16.37;;;12.33;;
44145;SDS011;29809;52.432;4.780;2022-12-04T15:11:57;12.93;;;11.63;;
44145;SDS011;29809;52.432;4.780;2022-12-04T15:14:43;14.77;;;13.00;;
44145;SDS011;29809;52.432;4.780;2022-12-04T15:17:09;14.50;;;12.90;;
44145;SDS011;29809;52.432;4.780;2022-12-04T15:19:34;15.00;;;13.40;;
44145;SDS011;29809;52.432;4.780;2022-12-04T15:22:01;14.63;;;12.10;;
44145;SDS011;29809;52.432;4.780;2022-12-04T15:24:26;13.90;;;12.40;;
44145;SDS011;29809;52.432;4.780;2022-12-04T15:26:52;15.23;;;13.00;;
44145;SDS011;29809;52.432;4.780;2022-12-04T15:29:21;14.17;;;12.77;;
44145;SDS011;29809;52.432;4.780;2022-12-04T15:31:49;13.93;;;12.45;;
44145;SDS011;29809;52.432;4.780;2022-12-04T15:34:21;13.83;;;12.33;;
44145;SDS011;29809;52.432;4.780;2022-12-04T15:39:51;13.97;;;12.57;;
44145;SDS011;29809;52.432;4.780;2022-12-04T15:44:55;14.07;;;12.67;;
44145;SDS011;29809;52.432;4.780;2022-12-04T15:47:25;13.83;;;12.43;;
44145;SDS011;29809;52.432;4.780;2022-12-04T15:49:51;14.37;;;12.97;;
44145;SDS011;29809;52.432;4.780;2022-12-04T15:54:42;13.23;;;11.93;;
44145;SDS011;29809;52.432;4.780;2022-12-04T15:57:19;12.23;;;10.67;;
44145;SDS011;29809;52.432;4.780;2022-12-04T15:59:47;13.20;;;11.13;;
44145;SDS011;29809;52.432;4.780;2022-12-04T16:02:23;12.03;;;10.83;;
44145;SDS011;29809;52.432;4.780;2022-12-04T16:04:49;11.40;;;10.30;;
44145;SDS011;29809;52.432;4.780;2022-12-04T16:07:18;12.10;;;10.75;;
44145;SDS011;29809;52.432;4.780;2022-12-04T16:12:35;12.63;;;11.32;;
44145;SDS011;29809;52.432;4.780;2022-12-04T16:15:01;12.50;;;10.82;;
44145;SDS011;29809;52.432;4.780;2022-12-04T16:17:29;12.07;;;10.88;;
44145;SDS011;29809;52.432;4.780;2022-12-04T16:19:55;12.23;;;11.02;;
44145;SDS011;29809;52.432;4.780;2022-12-04T16:22:21;11.82;;;10.63;;